Time;durP1;ratioP1;P1;durP2;ratioP2;P2;SDS_P1;SDS_P2;PMS_P1;PMS_P2;Temp;Humidity;BMP_temperature;BMP_pressure;BME280_temperature;BME280_humidity;BME280_pressure;Samples;Min_cycle;Max_cycle;Signal;HPM_P1;HPM_P2
2023/09/30 00:00:49;;;;;;;28.35;8.20;;;;;;;;;;5050017;28;20405;-62
2023/09/30 00:03:16;;;;;;;24.48;8.05;;;;;;;;;;5053559;28;20827;-62
2023/09/30 00:05:43;;;;;;;27.65;8.25;;;;;;;;;;5053180;28;20416;-61
2023/09/30 00:08:11;;;;;;;25.33;7.63;;;;;;;;;;5053398;28;20417;-62
2023/09/30 00:10:38;;;;;;;26.80;8.57;;;;;;;;;;5053340;28;20514;-61
2023/09/30 00:13:06;;;;;;;26.77;8.30;;;;;;;;;;5053310;28;20409;-61
2023/09/30 00:15:33;;;;;;;30.10;8.98;;;;;;;;;;5053536;28;20424;-61
2023/09/30 00:18:02;;;;;;;26.02;8.40;;;;;;;;;;5045865;28;20397;-62
2023/09/30 00:20:29;;;;;;;27.02;7.95;;;;;;;;;;5053018;28;20429;-62
2023/09/30 00:22:56;;;;;;;25.80;8.25;;;;;;;;;;5052961;28;20409;-62
2023/09/30 00:25:23;;;;;;;26.00;7.53;;;;;;;;;;5064645;28;20415;-62
2023/09/30 00:27:50;;;;;;;25.95;7.68;;;;;;;;;;5054550;28;20480;-62
2023/09/30 00:30:17;;;;;;;30.70;8.00;;;;;;;;;;5052736;28;20837;-62
2023/09/30 00:32:45;;;;;;;26.30;7.75;;;;;;;;;;5052804;28;20405;-62
2023/09/30 00:35:13;;;;;;;27.17;7.57;;;;;;;;;;5053028;28;20806;-61
2023/09/30 00:37:41;;;;;;;22.08;6.93;;;;;;;;;;5053074;28;20899;-66
2023/09/30 00:40:11;;;;;;;25.13;7.47;;;;;;;;;;5052743;28;20432;-62
2023/09/30 00:42:38;;;;;;;22.80;7.57;;;;;;;;;;5051507;28;20409;-62
2023/09/30 00:45:06;;;;;;;25.50;7.20;;;;;;;;;;5052680;28;20459;-62
2023/09/30 00:47:34;;;;;;;28.27;7.82;;;;;;;;;;5052382;28;20413;-62
2023/09/30 00:50:01;;;;;;;23.27;7.45;;;;;;;;;;5053098;28;20773;-62
2023/09/30 00:52:29;;;;;;;21.60;7.20;;;;;;;;;;5049090;28;20401;-62
2023/09/30 00:54:57;;;;;;;22.80;6.97;;;;;;;;;;5052181;28;20413;-62
2023/09/30 00:57:24;;;;;;;24.17;7.07;;;;;;;;;;5052453;28;20818;-62
2023/09/30 00:59:51;;;;;;;24.95;7.15;;;;;;;;;;5052434;28;20429;-62
2023/09/30 01:02:19;;;;;;;26.63;7.25;;;;;;;;;;5052498;28;20409;-62
2023/09/30 01:04:46;;;;;;;29.38;7.30;;;;;;;;;;5052433;28;20531;-62
2023/09/30 01:07:13;;;;;;;25.50;7.55;;;;;;;;;;5052634;28;20412;-62
2023/09/30 01:09:42;;;;;;;29.02;7.90;;;;;;;;;;5052397;28;20405;-62
2023/09/30 01:12:09;;;;;;;26.75;7.55;;;;;;;;;;5052277;28;20467;-62
2023/09/30 01:14:38;;;;;;;26.88;7.50;;;;;;;;;;5051980;28;20780;-62
2023/09/30 01:17:08;;;;;;;27.15;7.15;;;;;;;;;;5052677;28;20420;-65
2023/09/30 01:19:35;;;;;;;25.20;7.22;;;;;;;;;;5052470;28;20533;-62
2023/09/30 01:22:05;;;;;;;28.33;7.82;;;;;;;;;;5052473;28;20831;-62
2023/09/30 01:24:32;;;;;;;24.15;7.30;;;;;;;;;;5051416;28;20413;-62
2023/09/30 01:26:59;;;;;;;25.73;7.43;;;;;;;;;;5052176;28;20783;-62
2023/09/30 01:29:26;;;;;;;25.70;6.88;;;;;;;;;;5052336;28;20466;-62
2023/09/30 01:31:53;;;;;;;23.38;6.85;;;;;;;;;;5051810;28;20937;-62
2023/09/30 01:34:20;;;;;;;25.33;7.18;;;;;;;;;;5052399;28;20417;-62
2023/09/30 01:36:47;;;;;;;26.55;6.53;;;;;;;;;;5052003;28;20463;-62
2023/09/30 01:39:16;;;;;;;20.25;6.95;;;;;;;;;;5051957;28;20464;-61
2023/09/30 01:41:43;;;;;;;22.35;6.22;;;;;;;;;;5051918;28;20949;-62
2023/09/30 01:44:10;;;;;;;33.63;7.43;;;;;;;;;;5051575;28;20459;-62
2023/09/30 01:46:37;;;;;;;25.40;6.88;;;;;;;;;;5051768;28;20471;-62
2023/09/30 01:49:04;;;;;;;22.35;6.97;;;;;;;;;;5051895;28;20777;-62
2023/09/30 01:51:31;;;;;;;25.10;6.53;;;;;;;;;;5051628;28;20401;-62
2023/09/30 01:53:58;;;;;;;20.38;6.20;;;;;;;;;;5054087;28;20409;-62
2023/09/30 01:56:26;;;;;;;22.93;6.00;;;;;;;;;;5060870;28;20413;-62
2023/09/30 01:58:53;;;;;;;22.73;6.32;;;;;;;;;;5051405;28;20863;-62
2023/09/30 02:01:20;;;;;;;26.50;6.65;;;;;;;;;;5047849;28;20412;-62
2023/09/30 02:03:47;;;;;;;28.33;6.40;;;;;;;;;;5051624;28;20466;-62
2023/09/30 02:06:14;;;;;;;22.27;6.20;;;;;;;;;;5051189;28;20471;-62
2023/09/30 02:08:41;;;;;;;22.30;6.57;;;;;;;;;;5051386;28;20413;-62
2023/09/30 02:11:08;;;;;;;22.90;6.05;;;;;;;;;;5051950;28;20413;-62
2023/09/30 02:13:37;;;;;;;20.25;6.15;;;;;;;;;;5051799;28;20459;-62
2023/09/30 02:16:04;;;;;;;19.75;5.95;;;;;;;;;;5052026;28;20819;-62
2023/09/30 02:18:32;;;;;;;22.05;5.75;;;;;;;;;;5051606;28;20846;-62
2023/09/30 02:21:00;;;;;;;19.85;6.50;;;;;;;;;;5051158;28;20426;-62
2023/09/30 02:23:27;;;;;;;22.95;6.47;;;;;;;;;;5051188;28;20485;-62
2023/09/30 02:25:54;;;;;;;23.75;6.88;;;;;;;;;;5052765;28;20420;-62
2023/09/30 02:28:21;;;;;;;19.83;6.20;;;;;;;;;;5051007;28;20417;-62
2023/09/30 02:30:49;;;;;;;24.33;6.75;;;;;;;;;;5050998;28;20401;-62
2023/09/30 02:33:16;;;;;;;24.85;7.25;;;;;;;;;;5050934;28;20483;-62
2023/09/30 02:35:46;;;;;;;19.65;6.18;;;;;;;;;;5050422;28;20836;-62
2023/09/30 02:38:15;;;;;;;20.65;6.28;;;;;;;;;;5050747;28;20845;-62
2023/09/30 02:40:46;;;;;;;19.65;6.07;;;;;;;;;;5050759;28;20429;-62
2023/09/30 02:43:13;;;;;;;24.52;6.63;;;;;;;;;;5050992;28;20414;-62
2023/09/30 02:45:40;;;;;;;18.13;5.70;;;;;;;;;;5050751;28;20826;-62
2023/09/30 02:48:08;;;;;;;21.63;6.32;;;;;;;;;;5050688;28;20417;-62
2023/09/30 02:50:35;;;;;;;23.50;6.68;;;;;;;;;;5050657;28;20776;-62
2023/09/30 02:53:02;;;;;;;22.97;6.60;;;;;;;;;;5050763;28;20416;-62
2023/09/30 02:55:29;;;;;;;20.58;6.10;;;;;;;;;;5050173;28;20902;-62
2023/09/30 02:57:57;;;;;;;25.37;6.90;;;;;;;;;;5050307;28;20550;-63
2023/09/30 03:00:25;;;;;;;25.10;7.10;;;;;;;;;;5050402;28;20482;-62
2023/09/30 03:02:53;;;;;;;24.80;7.43;;;;;;;;;;5050656;28;20471;-63
2023/09/30 03:05:23;;;;;;;29.02;9.07;;;;;;;;;;5049668;28;20487;-62
2023/09/30 03:07:51;;;;;;;30.02;9.00;;;;;;;;;;5050015;28;20903;-62
2023/09/30 03:10:20;;;;;;;31.67;8.85;;;;;;;;;;5050665;28;20767;-62
2023/09/30 03:12:47;;;;;;;25.95;8.00;;;;;;;;;;5050481;28;20421;-62
2023/09/30 03:15:14;;;;;;;29.52;8.13;;;;;;;;;;5050284;28;20413;-62
2023/09/30 03:17:41;;;;;;;24.83;7.93;;;;;;;;;;5050374;28;20845;-62
2023/09/30 03:20:11;;;;;;;24.80;7.72;;;;;;;;;;5050540;28;20425;-62
2023/09/30 03:22:40;;;;;;;25.47;7.37;;;;;;;;;;5041864;28;20421;-62
2023/09/30 03:25:08;;;;;;;27.55;7.68;;;;;;;;;;5046837;28;20448;-60
2023/09/30 03:27:36;;;;;;;22.43;7.07;;;;;;;;;;5048553;28;20417;-62
2023/09/30 03:30:03;;;;;;;25.05;6.97;;;;;;;;;;5049715;28;20409;-62
2023/09/30 03:32:30;;;;;;;29.00;7.15;;;;;;;;;;5050093;28;20468;-62
2023/09/30 03:34:59;;;;;;;18.35;6.22;;;;;;;;;;5049558;28;20950;-62
2023/09/30 03:37:26;;;;;;;23.67;6.20;;;;;;;;;;5050123;28;20421;-62
2023/09/30 03:39:55;;;;;;;19.93;6.50;;;;;;;;;;5048274;28;20425;-62
2023/09/30 03:42:22;;;;;;;23.52;6.40;;;;;;;;;;5047591;28;20413;-62
2023/09/30 03:44:49;;;;;;;22.70;6.55;;;;;;;;;;5049989;28;20409;-62
2023/09/30 03:47:16;;;;;;;21.88;6.38;;;;;;;;;;5049811;28;20939;-62
2023/09/30 03:49:43;;;;;;;26.15;7.03;;;;;;;;;;5049749;28;20447;-62
2023/09/30 03:52:11;;;;;;;21.60;6.47;;;;;;;;;;5050058;28;20417;-62
2023/09/30 03:54:41;;;;;;;20.40;5.82;;;;;;;;;;5053426;28;20470;-62
2023/09/30 03:57:12;;;;;;;27.25;6.40;;;;;;;;;;5057854;28;20500;-62
2023/09/30 03:59:39;;;;;;;26.42;6.10;;;;;;;;;;5039195;28;20413;-62
2023/09/30 04:02:08;;;;;;;21.40;6.00;;;;;;;;;;5049852;28;20415;-62
2023/09/30 04:04:37;;;;;;;17.65;5.82;;;;;;;;;;5049669;28;20895;-62
2023/09/30 04:07:09;;;;;;;23.67;5.63;;;;;;;;;;5049992;28;20504;-62
2023/09/30 04:09:37;;;;;;;18.42;5.85;;;;;;;;;;5042654;28;20413;-62
2023/09/30 04:12:04;;;;;;;20.60;6.00;;;;;;;;;;5049816;28;20819;-62
2023/09/30 04:14:33;;;;;;;21.88;5.90;;;;;;;;;;5049566;28;20416;-62
2023/09/30 04:17:00;;;;;;;20.40;6.07;;;;;;;;;;5049687;28;20983;-62
2023/09/30 04:19:30;;;;;;;22.17;6.47;;;;;;;;;;5053613;28;20413;-62
2023/09/30 04:21:57;;;;;;;24.70;6.95;;;;;;;;;;5053160;28;20814;-62
2023/09/30 04:24:24;;;;;;;22.45;6.93;;;;;;;;;;5052964;28;20846;-62
2023/09/30 04:26:56;;;;;;;29.80;7.00;;;;;;;;;;5057989;28;20463;-61
2023/09/30 04:29:23;;;;;;;23.95;6.70;;;;;;;;;;5053335;28;20503;-62
2023/09/30 04:31:52;;;;;;;22.55;7.07;;;;;;;;;;5052788;28;20851;-62
2023/09/30 04:34:19;;;;;;;27.80;7.63;;;;;;;;;;5053079;28;20417;-62
2023/09/30 04:36:46;;;;;;;25.08;8.23;;;;;;;;;;5049416;28;20409;-62
2023/09/30 04:39:14;;;;;;;28.70;8.50;;;;;;;;;;5053028;28;20413;-62
2023/09/30 04:41:42;;;;;;;27.37;9.00;;;;;;;;;;5052462;28;20929;-62
2023/09/30 04:44:10;;;;;;;28.77;10.30;;;;;;;;;;5052826;28;20880;-62
2023/09/30 04:46:40;;;;;;;29.55;10.23;;;;;;;;;;5052658;28;20978;-62
2023/09/30 04:49:08;;;;;;;29.05;10.70;;;;;;;;;;5052792;28;20440;-62
2023/09/30 04:51:35;;;;;;;33.70;11.52;;;;;;;;;;5052691;28;20443;-62
2023/09/30 04:54:03;;;;;;;35.35;12.95;;;;;;;;;;5060547;28;20430;-62
2023/09/30 04:56:30;;;;;;;38.90;13.68;;;;;;;;;;5055901;28;20417;-62
2023/09/30 04:58:58;;;;;;;36.70;14.60;;;;;;;;;;5052712;28;20410;-62
2023/09/30 05:01:25;;;;;;;41.35;15.05;;;;;;;;;;5052354;28;20433;-62
2023/09/30 05:03:53;;;;;;;43.35;17.13;;;;;;;;;;5052513;28;20415;-62
2023/09/30 05:06:21;;;;;;;43.63;17.10;;;;;;;;;;5052297;28;20843;-62
2023/09/30 05:08:48;;;;;;;46.22;17.85;;;;;;;;;;5052533;28;20488;-62
2023/09/30 05:11:15;;;;;;;45.63;17.17;;;;;;;;;;5052506;28;20780;-61
2023/09/30 05:13:43;;;;;;;41.72;17.20;;;;;;;;;;5051530;28;20492;-62
2023/09/30 05:16:10;;;;;;;42.55;17.45;;;;;;;;;;5049622;28;20418;-62
2023/09/30 05:18:38;;;;;;;46.50;17.10;;;;;;;;;;5043516;28;20419;-62
2023/09/30 05:21:06;;;;;;;47.22;16.95;;;;;;;;;;5051220;28;20792;-62
2023/09/30 05:23:35;;;;;;;39.60;16.95;;;;;;;;;;5052930;28;20429;-62
2023/09/30 05:26:03;;;;;;;44.90;17.08;;;;;;;;;;5048044;28;20431;-62
2023/09/30 05:28:31;;;;;;;43.78;16.35;;;;;;;;;;5051161;28;20500;-61
2023/09/30 05:30:58;;;;;;;47.22;17.35;;;;;;;;;;5046791;28;20423;-62
2023/09/30 05:33:25;;;;;;;48.63;17.25;;;;;;;;;;5049208;28;20467;-62
2023/09/30 05:35:52;;;;;;;51.45;18.42;;;;;;;;;;5051463;28;20413;-61
2023/09/30 05:38:20;;;;;;;48.28;17.63;;;;;;;;;;5051538;28;20413;-62
2023/09/30 05:40:49;;;;;;;49.92;17.88;;;;;;;;;;5051337;28;20429;-62
2023/09/30 05:43:16;;;;;;;48.00;18.30;;;;;;;;;;5051414;28;20416;-62
2023/09/30 05:45:49;;;;;;;50.83;20.17;;;;;;;;;;5049723;28;20425;-62
2023/09/30 05:48:16;;;;;;;53.17;19.95;;;;;;;;;;5043543;28;20513;-62
2023/09/30 05:50:43;;;;;;;53.95;21.33;;;;;;;;;;5051420;28;20501;-62
2023/09/30 05:53:11;;;;;;;63.13;21.88;;;;;;;;;;5050375;28;20471;-62
2023/09/30 05:55:41;;;;;;;53.55;22.58;;;;;;;;;;5055308;28;20803;-62
2023/09/30 05:58:09;;;;;;;58.78;22.63;;;;;;;;;;5056752;28;20417;-62
2023/09/30 06:00:37;;;;;;;56.70;21.75;;;;;;;;;;5048097;28;20444;-64
2023/09/30 06:03:06;;;;;;;53.47;22.05;;;;;;;;;;5051343;28;20453;-62
2023/09/30 06:05:33;;;;;;;52.13;22.40;;;;;;;;;;5051282;28;20814;-62
2023/09/30 06:08:05;;;;;;;50.90;21.08;;;;;;;;;;5051191;28;20417;-62
2023/09/30 06:10:32;;;;;;;48.55;20.85;;;;;;;;;;5051248;28;20405;-62
2023/09/30 06:12:59;;;;;;;48.22;20.20;;;;;;;;;;5051156;28;20467;-62
2023/09/30 06:15:28;;;;;;;47.90;19.70;;;;;;;;;;5050845;28;20627;-62
2023/09/30 06:17:55;;;;;;;49.97;19.30;;;;;;;;;;5051518;28;20409;-62
2023/09/30 06:20:25;;;;;;;45.85;18.20;;;;;;;;;;5051040;28;20413;-62
2023/09/30 06:22:53;;;;;;;41.40;17.10;;;;;;;;;;5051017;28;21027;-62
2023/09/30 06:25:21;;;;;;;39.92;16.90;;;;;;;;;;5054583;28;20428;-62
2023/09/30 06:27:49;;;;;;;36.67;16.25;;;;;;;;;;5036785;28;20411;-62
2023/09/30 06:30:17;;;;;;;39.47;16.33;;;;;;;;;;5050698;28;20799;-62
2023/09/30 06:32:45;;;;;;;38.37;16.80;;;;;;;;;;5050981;28;20470;-62
2023/09/30 06:35:13;;;;;;;37.63;15.80;;;;;;;;;;5050923;28;20492;-62
2023/09/30 06:37:40;;;;;;;41.83;16.33;;;;;;;;;;5050432;28;20412;-62
2023/09/30 06:40:08;;;;;;;37.63;15.80;;;;;;;;;;5049825;28;20417;-62
2023/09/30 06:42:35;;;;;;;38.13;15.45;;;;;;;;;;5050995;28;20932;-62
2023/09/30 06:45:05;;;;;;;39.65;16.10;;;;;;;;;;5050579;28;20826;-64
2023/09/30 06:47:33;;;;;;;35.67;15.85;;;;;;;;;;5050747;28;20474;-62
2023/09/30 06:50:07;;;;;;;40.72;15.38;;;;;;;;;;5050282;28;20413;-62
2023/09/30 06:52:34;;;;;;;33.78;15.35;;;;;;;;;;5050334;28;20420;-62
2023/09/30 06:55:01;;;;;;;32.85;14.93;;;;;;;;;;5052215;28;20506;-62
2023/09/30 06:57:28;;;;;;;38.37;15.00;;;;;;;;;;5046455;28;20936;-62
2023/09/30 06:59:56;;;;;;;30.52;14.70;;;;;;;;;;5043612;28;20413;-62
2023/09/30 07:02:23;;;;;;;30.98;14.88;;;;;;;;;;5046267;28;20425;-62
2023/09/30 07:04:50;;;;;;;30.38;14.88;;;;;;;;;;5049329;28;20424;-62
2023/09/30 07:07:19;;;;;;;29.40;14.02;;;;;;;;;;5050200;28;20516;-62
2023/09/30 07:09:46;;;;;;;30.75;14.50;;;;;;;;;;5050126;28;20422;-62
2023/09/30 07:12:13;;;;;;;32.85;13.68;;;;;;;;;;5046560;28;20428;-62
2023/09/30 07:14:40;;;;;;;28.53;13.83;;;;;;;;;;5047830;28;20819;-60
2023/09/30 07:17:07;;;;;;;27.80;13.48;;;;;;;;;;5043660;28;20428;-62
2023/09/30 07:19:34;;;;;;;28.83;13.23;;;;;;;;;;5049921;28;20467;-62
2023/09/30 07:22:02;;;;;;;25.15;13.13;;;;;;;;;;5049736;28;20897;-62
2023/09/30 07:24:30;;;;;;;31.10;14.73;;;;;;;;;;5049896;28;20500;-62
2023/09/30 07:26:58;;;;;;;26.80;13.73;;;;;;;;;;5048356;28;20406;-62
2023/09/30 07:29:25;;;;;;;30.15;13.30;;;;;;;;;;5046230;28;20414;-62
2023/09/30 07:31:52;;;;;;;27.10;12.40;;;;;;;;;;5049552;28;20405;-62
2023/09/30 07:34:19;;;;;;;30.63;12.75;;;;;;;;;;5050131;28;20822;-62
2023/09/30 07:36:47;;;;;;;24.67;11.63;;;;;;;;;;5050209;28;20486;-62
2023/09/30 07:39:14;;;;;;;23.25;11.23;;;;;;;;;;5052731;28;20458;-61
2023/09/30 07:41:42;;;;;;;22.25;11.38;;;;;;;;;;5052136;28;20425;-62
2023/09/30 07:44:09;;;;;;;24.17;11.38;;;;;;;;;;5052726;28;20409;-62
2023/09/30 07:46:37;;;;;;;22.87;10.50;;;;;;;;;;5053435;28;20417;-63
2023/09/30 07:49:06;;;;;;;25.92;10.65;;;;;;;;;;5052581;28;21176;-62
2023/09/30 07:51:33;;;;;;;27.42;10.80;;;;;;;;;;5054064;28;20436;-62
2023/09/30 07:54:00;;;;;;;20.92;9.98;;;;;;;;;;5056536;28;20462;-62
2023/09/30 07:56:29;;;;;;;19.20;10.23;;;;;;;;;;5056553;28;20432;-62
2023/09/30 07:58:57;;;;;;;23.05;10.05;;;;;;;;;;5056310;28;20413;-63
2023/09/30 08:01:24;;;;;;;21.83;9.60;;;;;;;;;;5056607;28;20433;-62
2023/09/30 08:03:51;;;;;;;20.02;9.00;;;;;;;;;;5052775;28;20417;-62
2023/09/30 08:06:18;;;;;;;20.35;9.15;;;;;;;;;;5055836;28;20416;-63
2023/09/30 08:08:45;;;;;;;24.00;13.17;;;;;;;;;;5056136;28;20557;-62
2023/09/30 08:11:12;;;;;;;28.40;16.15;;;;;;;;;;5055446;28;20408;-63
2023/09/30 08:13:39;;;;;;;21.88;8.57;;;;;;;;;;5055471;28;20414;-62
2023/09/30 08:16:08;;;;;;;19.80;8.85;;;;;;;;;;5051552;28;20899;-63
2023/09/30 08:18:35;;;;;;;18.48;8.07;;;;;;;;;;5055403;28;20435;-62
2023/09/30 08:21:02;;;;;;;18.00;7.60;;;;;;;;;;5055507;28;20424;-62
2023/09/30 08:23:29;;;;;;;20.98;8.60;;;;;;;;;;5056798;28;20408;-63
2023/09/30 08:25:59;;;;;;;18.95;7.68;;;;;;;;;;5055602;28;20421;-62
2023/09/30 08:28:26;;;;;;;17.67;7.63;;;;;;;;;;5056499;28;20416;-62
2023/09/30 08:30:57;;;;;;;17.92;7.25;;;;;;;;;;5055791;28;20463;-63
2023/09/30 08:33:27;;;;;;;14.35;6.63;;;;;;;;;;5055779;28;20500;-63
2023/09/30 08:35:54;;;;;;;15.73;7.05;;;;;;;;;;5055662;28;20436;-62
2023/09/30 08:38:21;;;;;;;21.05;7.20;;;;;;;;;;5055524;28;20409;-62
2023/09/30 08:40:50;;;;;;;15.52;6.93;;;;;;;;;;5054878;28;20405;-63
2023/09/30 08:43:20;;;;;;;15.03;6.50;;;;;;;;;;5051369;28;20425;-63
2023/09/30 08:45:48;;;;;;;14.13;5.97;;;;;;;;;;5054248;28;20440;-63
2023/09/30 08:48:15;;;;;;;14.88;5.97;;;;;;;;;;5052408;28;20409;-63
2023/09/30 08:50:45;;;;;;;14.83;5.33;;;;;;;;;;5056148;28;20506;-63
2023/09/30 08:53:12;;;;;;;14.98;6.60;;;;;;;;;;5055662;28;20413;-62
2023/09/30 08:55:41;;;;;;;15.68;5.95;;;;;;;;;;5055683;28;20413;-62
2023/09/30 08:58:08;;;;;;;13.70;5.60;;;;;;;;;;5056229;28;20463;-62
2023/09/30 09:00:35;;;;;;;12.00;5.50;;;;;;;;;;5056068;28;20409;-62
2023/09/30 09:03:02;;;;;;;19.05;9.98;;;;;;;;;;5054907;28;20437;-62
2023/09/30 09:05:29;;;;;;;40.60;24.83;;;;;;;;;;5050644;28;20409;-62
2023/09/30 09:07:57;;;;;;;14.15;6.45;;;;;;;;;;5055073;28;20488;-63
2023/09/30 09:10:24;;;;;;;13.18;5.80;;;;;;;;;;5055339;28;20413;-67
2023/09/30 09:12:56;;;;;;;11.40;5.80;;;;;;;;;;5047247;28;20414;-63
2023/09/30 09:15:25;;;;;;;15.02;5.80;;;;;;;;;;5052438;28;20488;-64
2023/09/30 09:17:52;;;;;;;14.00;6.70;;;;;;;;;;5050843;28;20927;-66
2023/09/30 09:20:20;;;;;;;14.05;6.85;;;;;;;;;;5054957;28;20449;-65
2023/09/30 09:22:49;;;;;;;13.85;6.55;;;;;;;;;;5048867;28;20429;-63
2023/09/30 09:25:18;;;;;;;14.55;6.57;;;;;;;;;;5053878;28;20442;-66
2023/09/30 09:27:45;;;;;;;11.35;5.82;;;;;;;;;;5050349;28;20417;-65
2023/09/30 09:30:19;;;;;;;13.38;6.10;;;;;;;;;;5050063;28;20413;-65
2023/09/30 09:32:54;;;;;;;13.20;6.15;;;;;;;;;;5051659;28;20775;-64
2023/09/30 09:35:21;;;;;;;12.18;6.05;;;;;;;;;;5052821;28;20509;-65
2023/09/30 09:37:55;;;;;;;15.63;6.47;;;;;;;;;;5052807;28;20452;-63
2023/09/30 09:40:26;;;;;;;12.20;5.70;;;;;;;;;;5052334;28;20412;-63
2023/09/30 09:42:54;;;;;;;9.98;5.90;;;;;;;;;;5053110;28;20451;-65
2023/09/30 09:45:23;;;;;;;10.82;5.65;;;;;;;;;;5048909;28;20409;-63
2023/09/30 09:47:51;;;;;;;16.27;5.78;;;;;;;;;;5054405;28;20486;-63
2023/09/30 09:50:19;;;;;;;11.20;5.63;;;;;;;;;;5052944;28;20410;-63
2023/09/30 09:52:46;;;;;;;12.48;5.95;;;;;;;;;;5054286;28;20421;-63
2023/09/30 09:55:14;;;;;;;11.48;6.13;;;;;;;;;;5057584;28;20413;-63
2023/09/30 09:57:43;;;;;;;8.88;5.05;;;;;;;;;;5054441;28;20413;-63
2023/09/30 10:00:14;;;;;;;9.70;5.20;;;;;;;;;;5055428;28;20965;-64
2023/09/30 10:02:41;;;;;;;9.20;5.70;;;;;;;;;;5052588;28;20436;-65
2023/09/30 10:05:09;;;;;;;10.68;5.68;;;;;;;;;;5051759;28;20424;-65
2023/09/30 10:07:39;;;;;;;12.65;6.28;;;;;;;;;;5049449;28;20413;-64
2023/09/30 10:10:08;;;;;;;9.00;6.05;;;;;;;;;;5053638;28;20436;-65
2023/09/30 10:12:38;;;;;;;11.52;6.25;;;;;;;;;;5049498;28;20749;-63
2023/09/30 10:15:20;;;;;;;15.80;8.90;;;;;;;;;;5054699;28;20453;-64
2023/09/30 10:18:03;;;;;;;13.75;7.47;;;;;;;;;;5052652;28;20413;-64
2023/09/30 10:20:30;;;;;;;11.57;5.45;;;;;;;;;;5051340;28;20409;-65
2023/09/30 10:23:16;;;;;;;11.13;5.32;;;;;;;;;;5050562;28;20452;-65
2023/09/30 10:25:47;;;;;;;10.10;5.17;;;;;;;;;;5047562;28;20397;-65
2023/09/30 10:28:32;;;;;;;9.83;4.80;;;;;;;;;;5050831;28;20436;-64
2023/09/30 10:31:12;;;;;;;12.77;4.67;;;;;;;;;;5049462;28;20467;-64
2023/09/30 10:33:53;;;;;;;10.00;4.40;;;;;;;;;;5050511;28;20404;-63
2023/09/30 10:36:29;;;;;;;8.90;4.80;;;;;;;;;;5048390;28;20413;-63
2023/09/30 10:38:56;;;;;;;9.40;4.87;;;;;;;;;;5047369;28;20491;-63
2023/09/30 10:41:38;;;;;;;10.52;4.38;;;;;;;;;;5050296;28;20475;-63
2023/09/30 10:44:24;;;;;;;11.90;4.90;;;;;;;;;;5048050;28;20462;-63
2023/09/30 10:46:54;;;;;;;11.60;4.50;;;;;;;;;;5050088;28;21476;-63
2023/09/30 10:49:33;;;;;;;9.30;4.05;;;;;;;;;;5050514;28;20463;-64
2023/09/30 10:52:02;;;;;;;9.90;3.97;;;;;;;;;;5047028;28;20493;-63
2023/09/30 10:54:30;;;;;;;8.93;3.38;;;;;;;;;;5050379;28;20780;-64
2023/09/30 10:56:58;;;;;;;10.43;4.00;;;;;;;;;;5050333;28;20413;-65
2023/09/30 10:59:26;;;;;;;9.05;3.53;;;;;;;;;;5050207;28;20918;-63
2023/09/30 11:01:54;;;;;;;8.75;3.53;;;;;;;;;;5049751;28;20470;-64
2023/09/30 11:04:21;;;;;;;10.60;3.83;;;;;;;;;;5050111;28;20453;-63
2023/09/30 11:06:49;;;;;;;9.48;3.50;;;;;;;;;;5050283;28;20413;-62
2023/09/30 11:09:22;;;;;;;7.63;3.83;;;;;;;;;;5050036;28;20919;-64
2023/09/30 11:11:49;;;;;;;9.93;3.80;;;;;;;;;;5049958;28;20420;-64
2023/09/30 11:14:23;;;;;;;7.67;3.40;;;;;;;;;;5050070;28;20497;-65
2023/09/30 11:16:51;;;;;;;6.80;3.28;;;;;;;;;;5050555;28;20795;-63
2023/09/30 11:19:20;;;;;;;7.47;3.50;;;;;;;;;;5049947;28;20888;-63
2023/09/30 11:21:48;;;;;;;9.10;3.83;;;;;;;;;;5049635;28;20489;-63
2023/09/30 11:24:15;;;;;;;7.73;2.80;;;;;;;;;;5056298;28;20411;-63
2023/09/30 11:26:43;;;;;;;6.25;2.78;;;;;;;;;;5050796;28;20413;-62
2023/09/30 11:29:11;;;;;;;7.05;2.70;;;;;;;;;;5050681;28;20412;-61
2023/09/30 11:31:38;;;;;;;6.38;2.83;;;;;;;;;;5054062;28;20418;-63
2023/09/30 11:34:07;;;;;;;5.22;3.08;;;;;;;;;;5054178;28;20414;-64
2023/09/30 11:36:35;;;;;;;8.45;3.50;;;;;;;;;;5054038;28;20421;-67
2023/09/30 11:39:03;;;;;;;8.45;3.58;;;;;;;;;;5053867;28;20420;-66
2023/09/30 11:41:38;;;;;;;8.55;3.35;;;;;;;;;;5053632;28;20951;-66
2023/09/30 11:44:08;;;;;;;7.43;3.28;;;;;;;;;;5050386;28;20425;-66
2023/09/30 11:46:49;;;;;;;7.00;3.50;;;;;;;;;;5053569;28;20496;-64
2023/09/30 11:49:25;;;;;;;7.57;3.47;;;;;;;;;;5051720;28;20482;-63
2023/09/30 11:51:52;;;;;;;6.18;3.08;;;;;;;;;;5050431;28;20413;-61
2023/09/30 11:54:19;;;;;;;6.90;3.08;;;;;;;;;;5057997;28;20432;-62
2023/09/30 11:56:47;;;;;;;8.47;3.07;;;;;;;;;;5050999;28;20486;-61
2023/09/30 11:59:15;;;;;;;6.32;2.92;;;;;;;;;;5054106;28;20444;-62
2023/09/30 12:01:43;;;;;;;7.28;3.30;;;;;;;;;;5053598;28;20471;-62
2023/09/30 12:04:11;;;;;;;6.20;3.13;;;;;;;;;;5053610;28;20516;-65
2023/09/30 12:06:38;;;;;;;5.82;2.50;;;;;;;;;;5052944;28;20424;-67
2023/09/30 12:09:08;;;;;;;5.72;2.53;;;;;;;;;;5052920;28;20416;-67
2023/09/30 12:11:35;;;;;;;5.32;2.90;;;;;;;;;;5053252;28;20443;-66
2023/09/30 12:14:02;;;;;;;5.77;2.90;;;;;;;;;;5053547;28;20448;-65
2023/09/30 12:16:30;;;;;;;7.20;3.70;;;;;;;;;;5053471;28;20756;-64
2023/09/30 12:18:57;;;;;;;7.18;3.80;;;;;;;;;;5053366;28;20499;-64
2023/09/30 12:21:24;;;;;;;9.07;3.75;;;;;;;;;;5052851;28;20442;-63
2023/09/30 12:23:51;;;;;;;6.00;3.30;;;;;;;;;;5052802;28;20429;-62
2023/09/30 12:26:19;;;;;;;7.38;3.10;;;;;;;;;;5052429;28;20827;-63
2023/09/30 12:28:48;;;;;;;6.28;3.13;;;;;;;;;;5053102;28;20417;-63
2023/09/30 12:31:15;;;;;;;6.45;3.20;;;;;;;;;;5049151;28;20409;-63
2023/09/30 12:33:43;;;;;;;6.50;3.42;;;;;;;;;;5052413;28;20872;-63
2023/09/30 12:36:12;;;;;;;6.78;3.35;;;;;;;;;;5052735;28;20884;-63
2023/09/30 12:38:39;;;;;;;8.55;3.33;;;;;;;;;;5051656;28;20452;-64
2023/09/30 12:41:07;;;;;;;5.60;3.30;;;;;;;;;;5052601;28;20437;-62
2023/09/30 12:43:34;;;;;;;7.93;3.08;;;;;;;;;;5052411;28;20429;-62
2023/09/30 12:46:01;;;;;;;6.78;3.45;;;;;;;;;;5052323;28;20464;-61
2023/09/30 12:48:28;;;;;;;7.70;3.45;;;;;;;;;;5052615;28;20436;-62
2023/09/30 12:50:56;;;;;;;7.50;3.67;;;;;;;;;;5054028;28;20422;-62
2023/09/30 12:53:23;;;;;;;7.45;3.70;;;;;;;;;;5054889;28;20414;-62
2023/09/30 12:55:50;;;;;;;7.10;3.72;;;;;;;;;;5052653;28;20417;-62
2023/09/30 12:58:17;;;;;;;10.20;4.25;;;;;;;;;;5052898;28;20904;-62
2023/09/30 13:00:44;;;;;;;7.20;3.80;;;;;;;;;;5053088;28;20414;-61
2023/09/30 13:03:15;;;;;;;8.18;3.95;;;;;;;;;;5052796;28;20429;-62
2023/09/30 13:05:42;;;;;;;7.50;3.90;;;;;;;;;;5049745;28;20407;-62
2023/09/30 13:08:11;;;;;;;6.40;3.70;;;;;;;;;;5053180;28;20409;-62
2023/09/30 13:10:39;;;;;;;8.30;4.28;;;;;;;;;;5049037;28;20507;-66
2023/09/30 13:13:06;;;;;;;7.80;4.45;;;;;;;;;;5051385;28;20535;-62
2023/09/30 13:15:34;;;;;;;11.05;4.32;;;;;;;;;;5052433;28;20459;-62
2023/09/30 13:18:03;;;;;;;7.22;4.30;;;;;;;;;;5053289;28;20830;-62
2023/09/30 13:20:30;;;;;;;6.75;4.00;;;;;;;;;;5052900;28;20424;-62
2023/09/30 13:22:57;;;;;;;7.30;4.28;;;;;;;;;;5052678;28;20483;-62
2023/09/30 13:25:26;;;;;;;8.63;4.35;;;;;;;;;;5055437;28;20409;-62
2023/09/30 13:27:53;;;;;;;8.82;4.50;;;;;;;;;;5049979;28;20420;-62
2023/09/30 13:30:20;;;;;;;6.38;3.97;;;;;;;;;;5051528;28;20463;-62
2023/09/30 13:32:47;;;;;;;6.95;4.47;;;;;;;;;;5051647;28;20790;-62
2023/09/30 13:35:14;;;;;;;7.32;3.97;;;;;;;;;;5051167;28;20413;-62
2023/09/30 13:37:42;;;;;;;7.93;3.92;;;;;;;;;;5051545;28;20823;-62
2023/09/30 13:40:11;;;;;;;7.60;4.00;;;;;;;;;;5051302;28;20786;-62
2023/09/30 13:42:40;;;;;;;7.80;3.97;;;;;;;;;;5051001;28;20891;-62
2023/09/30 13:45:08;;;;;;;8.35;3.75;;;;;;;;;;5047997;28;20409;-62
2023/09/30 13:47:35;;;;;;;8.85;3.88;;;;;;;;;;5051527;28;20807;-63
2023/09/30 13:50:03;;;;;;;7.22;3.95;;;;;;;;;;5051650;28;20484;-63
2023/09/30 13:52:30;;;;;;;7.63;3.90;;;;;;;;;;5051497;28;20497;-64
2023/09/30 13:54:57;;;;;;;7.38;3.83;;;;;;;;;;5056903;28;20471;-63
2023/09/30 13:57:24;;;;;;;8.23;3.65;;;;;;;;;;5051499;28;20413;-63
2023/09/30 13:59:53;;;;;;;8.87;3.67;;;;;;;;;;5051592;28;20490;-63
2023/09/30 14:02:20;;;;;;;6.88;3.65;;;;;;;;;;5051209;28;20421;-63
2023/09/30 14:04:47;;;;;;;7.72;3.50;;;;;;;;;;5050762;28;20508;-63
2023/09/30 14:07:14;;;;;;;8.50;3.53;;;;;;;;;;5051471;28;20418;-64
2023/09/30 14:09:41;;;;;;;8.48;3.85;;;;;;;;;;5051119;28;20492;-63
2023/09/30 14:12:08;;;;;;;7.50;4.53;;;;;;;;;;5051128;28;20409;-64
2023/09/30 14:14:35;;;;;;;7.57;3.78;;;;;;;;;;5050711;28;20409;-63
2023/09/30 14:17:07;;;;;;;6.27;3.67;;;;;;;;;;5051350;28;20409;-63
2023/09/30 14:19:34;;;;;;;6.63;4.13;;;;;;;;;;5044357;28;20416;-63
2023/09/30 14:22:02;;;;;;;9.23;4.05;;;;;;;;;;5049555;28;20413;-63
2023/09/30 14:24:29;;;;;;;7.50;3.50;;;;;;;;;;5052683;28;20425;-63
2023/09/30 14:26:56;;;;;;;7.10;3.50;;;;;;;;;;5051108;28;20819;-63
2023/09/30 14:29:24;;;;;;;6.50;3.45;;;;;;;;;;5051727;28;20427;-64
2023/09/30 14:31:51;;;;;;;8.55;3.60;;;;;;;;;;5052148;28;20959;-61
2023/09/30 14:34:20;;;;;;;6.97;3.20;;;;;;;;;;5052742;28;20440;-61
2023/09/30 14:36:47;;;;;;;7.28;3.40;;;;;;;;;;5052337;28;20455;-61